createdAt,value
2022-12-18T00:20:26.431Z,-6.78
2022-12-18T00:22:28.092Z,-6.78
2022-12-18T00:24:29.915Z,-6.83
2022-12-18T00:26:34.153Z,-6.84
2022-12-18T00:28:37.134Z,-7.14
2022-12-18T00:30:38.684Z,-7.55
2022-12-18T00:32:40.608Z,-7.84
2022-12-18T00:34:42.371Z,-8.12
2022-12-18T00:38:10.759Z,-8.02
2022-12-18T00:40:13.460Z,-8.03
2022-12-18T00:42:33.776Z,-8.08
2022-12-18T00:44:35.475Z,-8.21
2022-12-18T00:46:37.697Z,-8.33
2022-12-18T00:48:39.963Z,-8.41
2022-12-18T00:50:42.410Z,-8.44
2022-12-18T00:52:44.179Z,-8.47
2022-12-18T00:54:45.910Z,-8.44
2022-12-18T00:56:49.711Z,-8.52
2022-12-18T00:58:52.165Z,-8.53
2022-12-18T01:00:53.946Z,-8.55
2022-12-18T01:02:55.892Z,-8.53
2022-12-18T01:04:57.658Z,-8.46
2022-12-18T01:06:59.406Z,-8.40
2022-12-18T01:09:01.747Z,-8.44
2022-12-18T01:11:12.622Z,-8.22
2022-12-18T01:13:14.411Z,-8.03
2022-12-18T01:15:17.601Z,-7.81
2022-12-18T01:17:19.224Z,-7.68
2022-12-18T01:19:20.999Z,-7.51
2022-12-18T01:21:23.834Z,-7.42
2022-12-18T01:23:27.141Z,-7.37
2022-12-18T01:25:28.723Z,-7.23
2022-12-18T01:27:30.437Z,-7.19
2022-12-18T01:29:32.233Z,-7.15
2022-12-18T01:31:35.216Z,-7.10
2022-12-18T01:33:37.973Z,-7.09
2022-12-18T01:35:43.177Z,-7.01
2022-12-18T01:37:44.871Z,-7.06
2022-12-18T01:39:46.783Z,-7.10
2022-12-18T01:42:04.686Z,-7.03
2022-12-18T01:44:44.845Z,-6.92
2022-12-18T01:46:46.845Z,-7.04
2022-12-18T01:48:51.545Z,-7.03
2022-12-18T01:50:53.587Z,-7.15
2022-12-18T01:53:03.228Z,-7.10
2022-12-18T01:55:06.480Z,-7.04
2022-12-18T01:57:08.424Z,-7.03
2022-12-18T01:59:12.522Z,-6.99
2022-12-18T02:01:14.913Z,-6.99
2022-12-18T02:03:17.076Z,-6.98
2022-12-18T02:06:01.800Z,-7.07
2022-12-18T02:08:13.220Z,-7.03
2022-12-18T02:10:24.397Z,-7.13
2022-12-18T02:12:34.363Z,-7.06
2022-12-18T02:14:41.516Z,-7.03
2022-12-18T02:16:54.555Z,-7.01
2022-12-18T02:19:04.627Z,-6.95
2022-12-18T02:21:13.644Z,-7.00
2022-12-18T02:23:31.007Z,-7.03
2022-12-18T02:26:11.015Z,-6.97
2022-12-18T02:28:16.454Z,-7.23
2022-12-18T02:30:20.443Z,-7.10
2022-12-18T02:32:28.475Z,-7.12
2022-12-18T02:34:36.065Z,-7.11
2022-12-18T02:36:42.417Z,-7.20
2022-12-18T02:38:47.637Z,-7.29
2022-12-18T02:40:54.008Z,-7.32
2022-12-18T02:42:56.087Z,-7.25
2022-12-18T02:44:59.375Z,-7.16
2022-12-18T02:47:02.091Z,-7.02
2022-12-18T02:49:15.968Z,-6.95
2022-12-18T02:51:40.290Z,-6.97
2022-12-18T02:53:53.250Z,-6.84
2022-12-18T02:56:39.663Z,-6.91
2022-12-18T02:59:00.712Z,-6.90
2022-12-18T03:01:31.174Z,-7.10
2022-12-18T03:03:47.616Z,-7.12
2022-12-18T03:05:57.580Z,-7.04
2022-12-18T03:08:06.391Z,-7.02
2022-12-18T03:10:16.701Z,-6.88
2022-12-18T03:12:33.373Z,-7.08
2022-12-18T03:14:38.098Z,-6.89
2022-12-18T03:16:42.117Z,-6.87
2022-12-18T03:18:52.149Z,-6.95
2022-12-18T03:20:58.492Z,-6.98
2022-12-18T03:23:07.775Z,-6.90
2022-12-18T03:25:13.987Z,-6.92
2022-12-18T03:27:21.584Z,-6.90
2022-12-18T03:29:36.568Z,-6.81
2022-12-18T03:31:42.840Z,-6.81
2022-12-18T03:33:54.931Z,-6.82
2022-12-18T03:36:02.309Z,-7.01
2022-12-18T03:38:04.403Z,-7.16
2022-12-18T03:40:08.064Z,-6.99
2022-12-18T03:42:32.637Z,-7.05
2022-12-18T03:44:54.162Z,-6.91
2022-12-18T03:47:22.247Z,-6.98
2022-12-18T03:49:34.589Z,-7.00
2022-12-18T03:52:00.727Z,-7.03
2022-12-18T03:54:07.275Z,-7.00
2022-12-18T03:56:17.275Z,-6.95
2022-12-18T03:58:27.045Z,-6.84
2022-12-18T04:00:37.676Z,-6.83
2022-12-18T04:02:48.175Z,-6.93
2022-12-18T04:05:02.454Z,-7.07
2022-12-18T04:07:05.641Z,-6.97
2022-12-18T04:09:10.030Z,-7.06
2022-12-18T04:11:16.948Z,-7.17
2022-12-18T04:13:25.573Z,-7.21
2022-12-18T04:15:28.008Z,-7.15
2022-12-18T04:17:30.744Z,-7.21
2022-12-18T04:19:33.276Z,-7.33
2022-12-18T04:21:37.561Z,-7.31
2022-12-18T04:23:39.725Z,-7.29
2022-12-18T04:25:42.615Z,-7.26
2022-12-18T04:27:49.855Z,-7.15
2022-12-18T04:29:51.857Z,-7.26
2022-12-18T04:31:55.206Z,-7.25
2022-12-18T04:33:58.407Z,-7.33
2022-12-18T04:36:00.725Z,-7.20
2022-12-18T04:38:03.020Z,-7.19
2022-12-18T04:40:05.746Z,-7.06
2022-12-18T04:42:14.660Z,-7.11
2022-12-18T04:44:16.780Z,-7.02
2022-12-18T04:46:19.134Z,-7.17
2022-12-18T04:48:21.768Z,-7.22
2022-12-18T04:50:23.899Z,-7.14
2022-12-18T04:52:25.839Z,-7.25
2022-12-18T04:54:27.641Z,-7.30
2022-12-18T04:56:29.426Z,-7.33
2022-12-18T04:58:31.242Z,-7.46
2022-12-18T05:00:33.045Z,-7.38
2022-12-18T05:02:35.726Z,-7.51
2022-12-18T05:04:37.624Z,-7.48
2022-12-18T05:06:39.472Z,-7.29
2022-12-18T05:08:41.262Z,-7.35
2022-12-18T05:10:43.232Z,-7.34
2022-12-18T05:13:00.969Z,-7.28
2022-12-18T05:15:03.583Z,-7.24
2022-12-18T05:17:05.336Z,-7.23
2022-12-18T05:19:07.359Z,-7.33
2022-12-18T05:21:09.279Z,-7.30
2022-12-18T05:23:11.286Z,-7.26
2022-12-18T05:25:13.066Z,-7.36
2022-12-18T05:27:14.790Z,-7.27
2022-12-18T05:29:16.893Z,-7.39
2022-12-18T05:31:18.782Z,-7.33
2022-12-18T05:33:21.722Z,-7.43
2022-12-18T05:35:23.462Z,-7.35
2022-12-18T05:37:25.256Z,-7.25
2022-12-18T05:39:27.096Z,-7.31
2022-12-18T05:41:29.602Z,-7.30
2022-12-18T05:43:31.727Z,-7.26
2022-12-18T05:45:33.546Z,-7.28
2022-12-18T05:47:35.491Z,-7.21
2022-12-18T05:49:37.306Z,-7.36
2022-12-18T05:51:39.055Z,-7.30
2022-12-18T05:53:42.891Z,-7.32
2022-12-18T05:55:46.347Z,-7.45
2022-12-18T05:57:48.063Z,-7.53
2022-12-18T05:59:49.779Z,-7.56
2022-12-18T06:01:51.633Z,-7.76
2022-12-18T06:03:53.809Z,-7.63
2022-12-18T06:05:55.650Z,-7.66
2022-12-18T06:07:57.581Z,-7.55
2022-12-18T06:09:59.828Z,-7.61
2022-12-18T06:12:01.548Z,-7.58
2022-12-18T06:14:05.812Z,-7.72
2022-12-18T06:16:07.842Z,-7.51
2022-12-18T06:18:09.992Z,-7.53
2022-12-18T06:20:11.689Z,-7.56
2022-12-18T06:22:13.678Z,-7.69
2022-12-18T06:24:15.601Z,-7.57
2022-12-18T06:26:17.461Z,-7.45
2022-12-18T06:28:19.373Z,-7.52
2022-12-18T06:30:22.483Z,-7.42
2022-12-18T06:32:24.538Z,-7.57
2022-12-18T06:34:26.427Z,-7.54
2022-12-18T06:36:28.232Z,-7.48
2022-12-18T06:38:30.286Z,-7.55
2022-12-18T06:40:32.034Z,-7.53
2022-12-18T06:42:34.187Z,-7.46
2022-12-18T06:44:36.264Z,-7.59
2022-12-18T06:46:38.858Z,-7.71
2022-12-18T06:48:41.126Z,-7.78
2022-12-18T06:50:43.916Z,-7.71
2022-12-18T06:52:45.983Z,-7.61
2022-12-18T06:54:49.152Z,-7.64
2022-12-18T06:56:50.997Z,-7.76
2022-12-18T06:58:53.219Z,-7.88
2022-12-18T07:00:55.013Z,-7.82
2022-12-18T07:02:56.922Z,-7.84
2022-12-18T07:04:59.036Z,-7.88
2022-12-18T07:07:01.250Z,-7.93
2022-12-18T07:09:03.372Z,-7.88
2022-12-18T07:11:06.057Z,-7.89
2022-12-18T07:13:07.816Z,-8.06
2022-12-18T07:15:10.181Z,-8.06
2022-12-18T07:17:12.103Z,-8.09
2022-12-18T07:19:13.994Z,-8.06
2022-12-18T07:21:18.749Z,-8.20
2022-12-18T07:23:20.598Z,-8.17
2022-12-18T07:25:22.658Z,-8.10
2022-12-18T07:27:24.440Z,-8.24
2022-12-18T07:29:26.545Z,-8.48
2022-12-18T07:31:28.612Z,-8.63
2022-12-18T07:33:30.585Z,-8.65
2022-12-18T07:35:34.952Z,-8.52
2022-12-18T07:37:37.238Z,-8.53
2022-12-18T07:39:39.217Z,-8.42
2022-12-18T07:41:47.583Z,-8.35
2022-12-18T07:43:51.536Z,-8.23
2022-12-18T07:45:53.455Z,-8.18
2022-12-18T07:47:55.244Z,-8.29
2022-12-18T07:49:57.709Z,-8.19
2022-12-18T07:52:00.978Z,-8.18
2022-12-18T07:54:02.970Z,-7.92
2022-12-18T07:58:30.412Z,-8.20
2022-12-18T08:00:32.219Z,-8.12
2022-12-18T08:02:34.209Z,-8.17
2022-12-18T08:04:36.596Z,-8.09
2022-12-18T08:06:38.461Z,-8.19
2022-12-18T08:08:42.307Z,-8.07
2022-12-18T08:10:44.090Z,-8.15
2022-12-18T08:12:46.745Z,-8.13
2022-12-18T08:14:48.602Z,-8.38
2022-12-18T08:16:50.461Z,-8.34
2022-12-18T08:18:54.095Z,-8.30
2022-12-18T08:20:56.723Z,-8.21
2022-12-18T08:22:59.158Z,-8.29
2022-12-18T08:25:01.012Z,-8.23
2022-12-18T08:29:25.155Z,-8.28
2022-12-18T08:31:29.307Z,-8.47
2022-12-18T08:33:31.368Z,-8.50
2022-12-18T08:35:45.458Z,-8.51
2022-12-18T08:37:48.011Z,-8.48
2022-12-18T08:39:49.867Z,-8.45
2022-12-18T08:42:11.992Z,-8.60
2022-12-18T08:44:32.410Z,-8.56
2022-12-18T08:46:38.534Z,-8.53
2022-12-18T08:48:48.961Z,-8.59
2022-12-18T08:50:58.339Z,-8.68
2022-12-18T08:53:00.071Z,-8.62
2022-12-18T08:55:16.173Z,-8.83
2022-12-18T08:57:18.021Z,-8.52
2022-12-18T08:59:20.779Z,-8.39
2022-12-18T09:01:24.547Z,-8.19
2022-12-18T09:03:26.459Z,-8.41
2022-12-18T09:05:28.873Z,-8.07
2022-12-18T09:07:30.805Z,-7.96
2022-12-18T09:09:32.653Z,-7.79
2022-12-18T09:11:34.530Z,-7.69
2022-12-18T09:13:36.574Z,-7.65
2022-12-18T09:15:48.324Z,-7.57
2022-12-18T09:17:50.873Z,-7.69
2022-12-18T09:19:52.858Z,-7.72
2022-12-18T09:21:54.818Z,-7.81
2022-12-18T09:23:57.257Z,-7.96
2022-12-18T09:26:01.940Z,-7.95
2022-12-18T09:28:07.047Z,-8.12
2022-12-18T09:30:09.602Z,-8.19
2022-12-18T09:32:38.429Z,-8.11
2022-12-18T09:34:40.650Z,-8.14
2022-12-18T09:36:42.574Z,-8.40
2022-12-18T09:38:46.702Z,-8.36
2022-12-18T09:40:56.568Z,-8.40
2022-12-18T09:43:05.596Z,-8.49
2022-12-18T09:45:19.652Z,-8.60
2022-12-18T09:47:24.581Z,-8.52
2022-12-18T09:49:32.129Z,-8.51
2022-12-18T09:51:40.961Z,-8.45
2022-12-18T09:53:48.944Z,-8.35
2022-12-18T09:59:27.056Z,-8.52
2022-12-18T10:01:38.983Z,-8.66
2022-12-18T10:03:49.963Z,-8.54
2022-12-18T10:06:10.129Z,-8.58
2022-12-18T10:08:36.020Z,-8.46
2022-12-18T10:10:48.519Z,-8.30
2022-12-18T10:13:04.940Z,-8.30
2022-12-18T10:15:17.887Z,-8.32
2022-12-18T10:17:19.642Z,-8.29
2022-12-18T10:19:50.294Z,-8.52
2022-12-18T10:22:22.396Z,-8.29
2022-12-18T10:24:55.362Z,-8.07
2022-12-18T10:27:13.493Z,-8.08
2022-12-18T10:29:16.981Z,-8.22
2022-12-18T10:31:24.550Z,-8.00
2022-12-18T10:33:31.065Z,-8.00
2022-12-18T10:35:33.027Z,-7.83
2022-12-18T10:37:34.957Z,-7.76
2022-12-18T10:39:37.593Z,-7.78
2022-12-18T10:42:51.298Z,-7.78
2022-12-18T10:45:16.638Z,-7.66
2022-12-18T10:47:19.945Z,-7.88
2022-12-18T10:49:31.280Z,-7.76
2022-12-18T10:51:36.728Z,-7.64
2022-12-18T10:53:40.892Z,-7.62
2022-12-18T10:55:46.955Z,-7.66
2022-12-18T10:57:48.701Z,-7.58
2022-12-18T10:59:53.279Z,-7.38
2022-12-18T11:01:58.034Z,-7.63
2022-12-18T11:04:26.134Z,-7.62
2022-12-18T11:06:28.888Z,-7.79
2022-12-18T11:08:31.355Z,-7.62
2022-12-18T11:10:36.596Z,-7.78
2022-12-18T11:12:38.561Z,-7.61
2022-12-18T11:14:46.845Z,-7.55
2022-12-18T11:17:24.458Z,-7.43
2022-12-18T11:19:39.131Z,-7.26
2022-12-18T11:21:44.022Z,-7.25
2022-12-18T11:23:54.469Z,-7.31
2022-12-18T11:26:02.623Z,-7.43
2022-12-18T11:28:28.804Z,-7.47
2022-12-18T11:30:35.953Z,-7.33
2022-12-18T11:32:45.994Z,-7.22
2022-12-18T11:34:58.871Z,-7.26
2022-12-18T11:37:03.967Z,-7.28
2022-12-18T11:39:35.087Z,-7.35
2022-12-18T11:42:06.615Z,-7.42
2022-12-18T11:44:14.762Z,-7.47
2022-12-18T11:46:39.163Z,-7.31
2022-12-18T11:48:57.059Z,-7.06
2022-12-18T11:51:02.707Z,-7.04
2022-12-18T11:53:06.370Z,-6.98
2022-12-18T11:55:33.274Z,-6.78
2022-12-18T11:57:42.618Z,-6.72
2022-12-18T12:00:10.898Z,-6.96
2022-12-18T12:02:38.648Z,-6.83
2022-12-18T12:04:40.418Z,-6.91
2022-12-18T12:06:49.535Z,-6.75
2022-12-18T12:09:08.857Z,-6.76
2022-12-18T12:11:34.356Z,-6.62
2022-12-18T12:14:14.362Z,-6.57
2022-12-18T12:16:28.325Z,-2.96
2022-12-18T12:19:01.183Z,-3.76
2022-12-18T12:21:10.899Z,-4.43
2022-12-18T12:23:23.555Z,-4.89
2022-12-18T12:25:51.628Z,-5.47
2022-12-18T12:28:24.724Z,-5.68
2022-12-18T12:30:43.932Z,-6.33
2022-12-18T12:33:00.900Z,-6.23
2022-12-18T12:35:17.856Z,-6.25
2022-12-18T12:37:41.645Z,-6.31
2022-12-18T12:39:46.930Z,-6.34
2022-12-18T12:42:08.231Z,-6.31
2022-12-18T12:45:00.647Z,-6.17
2022-12-18T12:47:14.229Z,-6.34
2022-12-18T12:49:22.024Z,-6.14
2022-12-18T12:51:33.828Z,-6.33
2022-12-18T12:53:40.151Z,-6.21
2022-12-18T12:55:44.304Z,-6.23
2022-12-18T12:58:07.973Z,-6.27
2022-12-18T13:00:15.998Z,-6.18
2022-12-18T13:02:33.431Z,-6.18
2022-12-18T13:04:58.962Z,-6.36
2022-12-18T13:07:11.248Z,-6.23
2022-12-18T13:09:17.720Z,-6.02
2022-12-18T13:12:08.424Z,-5.90
2022-12-18T13:14:22.681Z,-6.18
2022-12-18T13:16:28.227Z,-6.09
2022-12-18T13:18:30.718Z,-5.95
2022-12-18T13:20:40.646Z,-6.08
2022-12-18T13:22:53.089Z,-5.98
2022-12-18T13:24:55.282Z,-6.10
2022-12-18T13:26:57.456Z,-6.09
2022-12-18T13:29:02.236Z,-6.08
2022-12-18T13:31:04.654Z,-5.78
2022-12-18T13:33:18.700Z,-5.68
2022-12-18T13:35:23.277Z,-5.67
2022-12-18T13:37:32.371Z,-5.75
2022-12-18T13:39:35.992Z,-5.90
2022-12-18T13:41:38.404Z,-5.97
2022-12-18T13:43:45.836Z,-5.93
2022-12-18T13:46:06.356Z,-5.97
2022-12-18T13:48:17.139Z,-5.98
2022-12-18T13:50:29.863Z,-5.87
2022-12-18T13:52:40.093Z,-5.84
2022-12-18T13:54:43.729Z,-5.84
2022-12-18T13:56:47.530Z,-5.80
2022-12-18T13:59:13.406Z,-5.63
2022-12-18T14:01:24.854Z,-5.73
2022-12-18T14:03:29.171Z,-5.71
2022-12-18T14:05:35.531Z,-5.64
2022-12-18T14:07:41.943Z,-5.59
2022-12-18T14:10:01.974Z,-5.53
2022-12-18T14:12:36.386Z,-5.53
2022-12-18T14:14:38.255Z,-5.74
2022-12-18T14:16:42.038Z,-5.64
2022-12-18T14:18:51.614Z,-5.73
2022-12-18T14:20:57.642Z,-5.65
2022-12-18T14:23:01.073Z,-5.78
2022-12-18T14:25:19.995Z,-5.76
2022-12-18T14:27:25.453Z,-5.74
2022-12-18T14:29:29.608Z,-5.69
2022-12-18T14:31:32.562Z,-5.56
2022-12-18T14:33:35.167Z,-5.48
2022-12-18T14:35:40.435Z,-5.48
2022-12-18T14:37:42.489Z,-5.55
2022-12-18T14:39:59.009Z,-5.55
2022-12-18T14:42:01.006Z,-5.39
2022-12-18T14:44:08.083Z,-5.27
2022-12-18T14:46:31.473Z,-5.28
2022-12-18T14:49:02.459Z,-4.89
2022-12-18T14:51:11.605Z,-5.20
2022-12-18T14:53:47.760Z,-5.24
2022-12-18T14:55:54.170Z,-5.24
2022-12-18T14:57:57.350Z,-5.19
2022-12-18T15:00:06.417Z,-5.21
2022-12-18T15:06:31.295Z,-5.19
2022-12-18T15:08:37.988Z,-5.13
2022-12-18T15:10:48.589Z,-5.26
2022-12-18T15:12:56.749Z,-5.20
2022-12-18T15:14:58.793Z,-5.26
2022-12-18T15:17:20.115Z,-5.23
2022-12-18T15:19:50.090Z,-5.12
2022-12-18T15:21:51.773Z,-5.18
2022-12-18T15:24:19.828Z,-5.26
2022-12-18T15:27:19.624Z,-5.23
2022-12-18T15:29:23.067Z,-5.18
2022-12-18T15:31:38.704Z,-5.15
2022-12-18T15:33:51.337Z,-5.02
2022-12-18T15:36:05.051Z,-4.99
2022-12-18T15:38:13.874Z,-5.20
2022-12-18T15:40:18.663Z,-5.09
2022-12-18T15:42:41.241Z,-4.97
2022-12-18T15:49:03.080Z,-5.20
2022-12-18T15:51:12.943Z,-5.15
2022-12-18T15:53:15.294Z,-5.11
2022-12-18T15:55:41.623Z,-5.13
2022-12-18T15:57:44.647Z,-5.17
2022-12-18T15:59:46.849Z,-5.08
2022-12-18T16:01:51.861Z,-5.18
2022-12-18T16:03:58.122Z,-5.17
2022-12-18T16:06:02.958Z,-5.18
2022-12-18T16:08:05.969Z,-5.16
2022-12-18T16:10:08.346Z,-5.09
2022-12-18T16:12:18.075Z,-4.99
2022-12-18T16:14:22.636Z,-5.13
2022-12-18T16:16:26.008Z,-5.05
2022-12-18T16:18:29.276Z,-5.02
2022-12-18T16:20:31.248Z,-5.14
2022-12-18T16:22:33.006Z,-5.17
2022-12-18T16:24:37.134Z,-5.00
2022-12-18T16:26:39.361Z,-5.38
2022-12-18T16:28:45.287Z,-5.31
2022-12-18T16:30:49.938Z,-5.29
2022-12-18T16:32:52.084Z,-5.27
2022-12-18T16:34:53.778Z,-5.23
2022-12-18T16:37:05.124Z,-5.13
2022-12-18T16:39:07.630Z,-5.01
2022-12-18T16:41:41.783Z,-5.07
2022-12-18T16:43:44.031Z,-5.19
2022-12-18T16:45:46.376Z,-5.10
2022-12-18T16:47:50.960Z,-5.10
2022-12-18T16:49:53.344Z,-4.97
2022-12-18T16:51:57.477Z,-5.00
2022-12-18T16:53:59.244Z,-5.00
2022-12-18T16:56:01.423Z,-5.00
2022-12-18T16:58:03.147Z,-4.92
2022-12-18T17:00:06.321Z,-4.78
2022-12-18T17:02:18.069Z,-4.70
2022-12-18T17:04:22.019Z,-4.65
2022-12-18T17:06:25.199Z,-4.62
2022-12-18T17:09:16.381Z,-4.77
2022-12-18T17:11:18.482Z,-4.74
2022-12-18T17:13:49.313Z,-4.71
2022-12-18T17:15:52.610Z,-4.63
2022-12-18T17:18:44.640Z,-4.80
2022-12-18T17:20:47.167Z,-4.84
2022-12-18T17:22:49.302Z,-4.86
2022-12-18T17:24:52.699Z,-4.87
2022-12-18T17:27:01.485Z,-4.81
2022-12-18T17:29:03.631Z,-4.78
2022-12-18T17:31:18.517Z,-4.77
2022-12-18T17:33:20.737Z,-4.82
2022-12-18T17:35:24.143Z,-4.97
2022-12-18T17:37:26.984Z,-5.11
2022-12-18T17:39:30.804Z,-5.08
2022-12-18T17:42:02.231Z,-4.86
2022-12-18T17:44:06.190Z,-4.90
2022-12-18T17:46:08.175Z,-4.93
2022-12-18T17:48:11.331Z,-4.93
2022-12-18T17:50:13.345Z,-4.85
2022-12-18T17:52:43.493Z,-5.10
2022-12-18T17:54:46.016Z,-4.85
2022-12-18T17:56:49.890Z,-4.85
2022-12-18T17:58:51.668Z,-4.96
2022-12-18T18:00:53.659Z,-5.08
2022-12-18T18:02:56.072Z,-4.94
2022-12-18T18:04:57.914Z,-5.08
2022-12-18T18:06:59.663Z,-4.98
2022-12-18T18:09:01.501Z,-4.93
2022-12-18T18:11:24.878Z,-4.75
2022-12-18T18:13:47.057Z,-5.01
2022-12-18T18:16:20.187Z,-4.91
2022-12-18T18:18:22.016Z,-5.18
2022-12-18T18:20:28.495Z,-4.65
2022-12-18T18:22:30.770Z,-4.68
2022-12-18T18:24:33.156Z,-4.66
2022-12-18T18:26:35.547Z,-4.88
2022-12-18T18:28:37.589Z,-4.86
2022-12-18T18:30:39.823Z,-4.92
2022-12-18T18:32:41.650Z,-4.88
2022-12-18T18:34:43.974Z,-4.95
2022-12-18T18:36:46.228Z,-4.86
2022-12-18T18:38:48.762Z,-4.83
2022-12-18T18:41:01.683Z,-4.85
2022-12-18T18:43:03.871Z,-5.00
2022-12-18T18:45:07.824Z,-4.89
2022-12-18T18:47:09.855Z,-4.78
2022-12-18T18:49:18.763Z,-4.72
2022-12-18T18:51:21.938Z,-4.87
2022-12-18T18:53:23.870Z,-4.87
2022-12-18T18:55:28.004Z,-5.07
2022-12-18T18:57:30.675Z,-4.91
2022-12-18T18:59:32.607Z,-4.76
2022-12-18T19:01:34.859Z,-5.05
2022-12-18T19:03:37.999Z,-5.11
2022-12-18T19:05:44.434Z,-5.12
2022-12-18T19:07:49.881Z,-4.96
2022-12-18T19:09:53.983Z,-4.87
2022-12-18T19:12:14.996Z,-5.06
2022-12-18T19:14:18.935Z,-5.12
2022-12-18T19:16:21.104Z,-4.93
2022-12-18T19:18:25.530Z,-5.13
2022-12-18T19:20:27.815Z,-5.04
2022-12-18T19:22:29.839Z,-5.17
2022-12-18T19:24:56.921Z,-4.97
2022-12-18T19:26:58.738Z,-4.94
2022-12-18T19:29:06.024Z,-4.95
2022-12-18T19:31:10.835Z,-4.93
2022-12-18T19:33:41.870Z,-4.95
2022-12-18T19:35:34.632Z,-4.88
2022-12-18T19:38:29.028Z,-4.83
2022-12-18T19:40:30.910Z,-4.84
2022-12-18T19:42:35.649Z,-4.91
2022-12-18T19:44:42.081Z,-4.91
2022-12-18T19:46:46.088Z,-4.84
2022-12-18T19:48:49.014Z,-5.09
2022-12-18T19:50:51.273Z,-4.87
2022-12-18T19:52:53.332Z,-5.16
2022-12-18T19:54:55.247Z,-5.08
2022-12-18T19:56:57.487Z,-5.00
2022-12-18T19:58:59.996Z,-4.85
2022-12-18T20:01:02.643Z,-4.96
2022-12-18T20:03:17.667Z,-4.96
2022-12-18T20:05:25.325Z,-5.07
2022-12-18T20:07:27.060Z,-5.10
2022-12-18T20:09:28.776Z,-5.07
2022-12-18T20:11:31.257Z,-5.11
2022-12-18T20:13:33.561Z,-5.20
2022-12-18T20:15:35.948Z,-5.13
2022-12-18T20:17:41.092Z,-5.31
2022-12-18T20:19:49.619Z,-5.29
2022-12-18T20:21:51.672Z,-5.36
2022-12-18T20:23:56.023Z,-5.23
2022-12-18T20:25:57.939Z,-4.79
2022-12-18T20:27:59.896Z,-5.19
2022-12-18T20:30:02.154Z,-5.36
2022-12-18T20:32:04.607Z,-5.19
2022-12-18T20:34:07.072Z,-5.16
2022-12-18T20:36:15.492Z,-5.03
2022-12-18T20:38:18.306Z,-5.05
2022-12-18T20:40:26.504Z,-5.07
2022-12-18T20:42:29.209Z,-5.15
2022-12-18T20:44:35.164Z,-4.95
2022-12-18T20:46:37.066Z,-5.23
2022-12-18T20:48:41.056Z,-5.33
2022-12-18T20:50:43.386Z,-5.34
2022-12-18T20:52:45.185Z,-5.24
2022-12-18T20:54:47.006Z,-5.31
2022-12-18T20:56:49.200Z,-5.20
2022-12-18T20:58:51.809Z,-5.34
2022-12-18T21:01:15.018Z,-5.26
2022-12-18T21:03:17.903Z,-5.20
2022-12-18T21:05:19.774Z,-5.00
2022-12-18T21:07:22.748Z,-5.09
2022-12-18T21:09:24.603Z,-4.91
2022-12-18T21:11:50.488Z,-5.15
2022-12-18T21:13:52.924Z,-5.34
2022-12-18T21:15:55.197Z,-5.21
2022-12-18T21:17:57.722Z,-5.18
2022-12-18T21:20:00.145Z,-5.13
2022-12-18T21:22:02.235Z,-5.18
2022-12-18T21:24:11.959Z,-5.15
2022-12-18T21:26:25.781Z,-5.23
2022-12-18T21:28:27.895Z,-5.21
2022-12-18T21:30:29.686Z,-5.01
2022-12-18T21:32:36.437Z,-4.80
2022-12-18T21:34:44.683Z,-5.02
2022-12-18T21:36:50.174Z,-5.16
2022-12-18T21:38:55.845Z,-4.90
2022-12-18T21:40:59.765Z,-5.14
2022-12-18T21:43:22.040Z,-5.12
2022-12-18T21:45:23.666Z,-4.97
2022-12-18T21:47:29.577Z,-5.01
2022-12-18T21:49:32.436Z,-5.11
2022-12-18T21:52:32.653Z,-4.93
2022-12-18T21:54:34.944Z,-4.76
2022-12-18T21:56:43.979Z,-4.82
2022-12-18T21:58:57.304Z,-4.71
2022-12-18T22:00:59.274Z,-4.97
2022-12-18T22:03:17.058Z,-5.04
2022-12-18T22:05:20.623Z,-5.05
2022-12-18T22:07:22.641Z,-4.98
2022-12-18T22:09:25.693Z,-5.13
2022-12-18T22:11:28.028Z,-5.16
2022-12-18T22:13:30.045Z,-5.07
2022-12-18T22:15:32.307Z,-5.00
2022-12-18T22:17:34.016Z,-4.94
2022-12-18T22:19:42.653Z,-4.82
2022-12-18T22:21:47.172Z,-4.72
2022-12-18T22:24:00.570Z,-4.88
2022-12-18T22:26:02.984Z,-5.01
2022-12-18T22:30:59.262Z,-4.95
2022-12-18T22:33:01.374Z,-4.91
2022-12-18T22:35:10.473Z,-4.95
2022-12-18T22:37:16.228Z,-5.07
2022-12-18T22:39:20.995Z,-5.00
2022-12-18T22:41:22.917Z,-5.11
2022-12-18T22:43:24.560Z,-4.96
2022-12-18T22:45:26.597Z,-5.00
2022-12-18T22:47:30.522Z,-4.94
2022-12-18T22:49:32.560Z,-5.00
2022-12-18T22:51:36.505Z,-4.97
2022-12-18T22:53:38.632Z,-4.85
2022-12-18T22:55:41.416Z,-4.78
2022-12-18T22:57:48.566Z,-4.81
2022-12-18T22:59:51.953Z,-5.15
2022-12-18T23:01:58.647Z,-5.06
2022-12-18T23:04:01.684Z,-4.98
2022-12-18T23:06:07.586Z,-4.91
2022-12-18T23:08:09.522Z,-4.87
2022-12-18T23:10:11.535Z,-4.94
2022-12-18T23:12:16.477Z,-5.06
2022-12-18T23:14:18.460Z,-4.86
2022-12-18T23:16:21.332Z,-4.88
2022-12-18T23:18:23.240Z,-4.86
2022-12-18T23:20:27.011Z,-4.99
2022-12-18T23:22:30.271Z,-4.94
2022-12-18T23:24:32.758Z,-4.99
2022-12-18T23:26:35.537Z,-4.90
2022-12-18T23:28:38.022Z,-4.73
2022-12-18T23:30:39.660Z,-4.74
2022-12-18T23:32:41.198Z,-4.87
2022-12-18T23:34:42.754Z,-4.84
2022-12-18T23:36:46.170Z,-4.67
2022-12-18T23:38:50.996Z,-4.62
2022-12-18T23:40:52.521Z,-4.68
2022-12-18T23:43:00.251Z,-4.74
2022-12-18T23:45:03.908Z,-4.84
2022-12-18T23:47:11.009Z,-4.73
2022-12-18T23:49:12.759Z,-4.83
2022-12-18T23:51:16.562Z,-4.70
2022-12-18T23:53:18.176Z,-4.69
2022-12-18T23:55:19.765Z,-4.78
2022-12-18T23:57:21.855Z,-4.65
2022-12-18T23:59:26.675Z,-4.82
